createdAt,value
2023-03-06T00:00:27.193Z,1.60
2023-03-06T00:02:54.561Z,1.60
2023-03-06T00:05:22.005Z,1.60
2023-03-06T00:07:49.336Z,1.60
2023-03-06T00:10:22.795Z,1.60
2023-03-06T00:12:53.957Z,1.60
2023-03-06T00:15:22.313Z,1.60
2023-03-06T00:17:49.724Z,1.60
2023-03-06T00:20:17.747Z,1.60
2023-03-06T00:22:45.353Z,1.60
2023-03-06T00:25:16.620Z,1.60
2023-03-06T00:27:44.267Z,1.60
2023-03-06T00:30:21.729Z,1.60
2023-03-06T00:32:49.895Z,1.70
2023-03-06T00:35:17.591Z,1.70
2023-03-06T00:37:45.450Z,1.70
2023-03-06T00:40:17.071Z,1.70
2023-03-06T00:42:47.038Z,1.70
2023-03-06T00:45:15.104Z,1.70
2023-03-06T00:47:43.515Z,1.70
2023-03-06T00:50:12.124Z,1.80
2023-03-06T00:52:39.679Z,1.80
2023-03-06T00:55:07.544Z,1.90
2023-03-06T00:57:34.721Z,2.00
2023-03-06T01:00:02.762Z,2.10
2023-03-06T01:02:29.897Z,2.10
2023-03-06T01:04:57.716Z,2.20
2023-03-06T01:07:27.358Z,2.20
2023-03-06T01:09:57.135Z,2.20
2023-03-06T01:12:24.212Z,2.30
2023-03-06T01:14:51.856Z,2.30
2023-03-06T01:17:18.941Z,2.30
2023-03-06T01:19:46.058Z,2.30
2023-03-06T01:22:13.178Z,2.40
2023-03-06T01:24:40.334Z,2.40
2023-03-06T01:27:07.466Z,2.40
2023-03-06T01:29:34.539Z,2.40
2023-03-06T01:32:01.711Z,2.40
2023-03-06T01:34:28.944Z,2.40
2023-03-06T01:36:56.071Z,2.40
2023-03-06T01:39:23.130Z,2.40
2023-03-06T01:41:50.190Z,2.40
2023-03-06T01:44:17.362Z,2.40
2023-03-06T01:46:45.672Z,2.40
2023-03-06T01:49:20.387Z,2.40
2023-03-06T01:51:55.035Z,2.40
2023-03-06T01:54:43.711Z,2.40
2023-03-06T01:57:26.241Z,2.40
2023-03-06T02:00:07.747Z,2.40
2023-03-06T02:02:34.909Z,2.40
2023-03-06T02:05:04.450Z,2.40
2023-03-06T02:07:32.458Z,2.30
2023-03-06T02:09:59.627Z,2.30
2023-03-06T02:12:27.179Z,2.30
2023-03-06T02:14:54.610Z,2.30
2023-03-06T02:17:23.604Z,2.30
2023-03-06T02:20:09.798Z,2.40
2023-03-06T02:22:50.954Z,2.30
2023-03-06T02:25:33.479Z,2.30
2023-03-06T02:28:00.924Z,2.30
2023-03-06T02:30:29.618Z,2.30
2023-03-06T02:32:57.882Z,2.30
2023-03-06T02:35:32.695Z,2.30
2023-03-06T02:38:10.810Z,2.30
2023-03-06T02:40:38.077Z,2.30
2023-03-06T02:43:05.820Z,2.30
2023-03-06T02:45:44.991Z,2.30
2023-03-06T02:48:17.107Z,2.40
2023-03-06T02:50:45.424Z,2.40
2023-03-06T02:53:16.108Z,2.30
2023-03-06T02:55:43.586Z,2.40
2023-03-06T02:58:11.347Z,2.40
2023-03-06T03:00:39.949Z,2.40
2023-03-06T03:03:07.889Z,2.40
2023-03-06T03:05:34.973Z,2.30
2023-03-06T03:08:02.202Z,2.40
2023-03-06T03:10:29.726Z,2.40
2023-03-06T03:12:59.145Z,2.40
2023-03-06T03:15:26.549Z,2.40
2023-03-06T03:17:53.628Z,2.40
2023-03-06T03:20:22.840Z,2.40
2023-03-06T03:22:53.842Z,2.40
2023-03-06T03:25:23.239Z,2.40
2023-03-06T03:27:50.381Z,2.30
2023-03-06T03:30:17.831Z,2.40
2023-03-06T03:32:45.059Z,2.50
2023-03-06T03:35:12.336Z,2.50
2023-03-06T03:37:39.460Z,2.50
2023-03-06T03:40:08.007Z,2.40
2023-03-06T03:42:35.059Z,2.40
2023-03-06T03:45:02.289Z,2.40
2023-03-06T03:47:29.395Z,2.40
2023-03-06T03:49:56.510Z,2.40
2023-03-06T03:52:23.758Z,2.40
2023-03-06T03:54:50.953Z,2.40
2023-03-06T03:57:18.283Z,2.40
2023-03-06T03:59:46.568Z,2.30
2023-03-06T04:02:13.839Z,2.40
2023-03-06T04:04:40.972Z,2.40
2023-03-06T04:07:08.049Z,2.40
2023-03-06T04:09:35.200Z,2.40
2023-03-06T04:12:02.254Z,2.40
2023-03-06T04:14:29.319Z,2.40
2023-03-06T04:16:56.489Z,2.50
2023-03-06T04:19:23.883Z,2.50
2023-03-06T04:21:51.061Z,2.40
2023-03-06T04:24:18.261Z,2.40
2023-03-06T04:26:45.360Z,2.40
2023-03-06T04:29:12.468Z,2.50
2023-03-06T04:31:39.567Z,2.50
2023-03-06T04:34:06.657Z,2.40
2023-03-06T04:36:35.340Z,2.40
2023-03-06T04:39:03.052Z,2.40
2023-03-06T04:41:31.624Z,2.40
2023-03-06T04:43:58.793Z,2.40
2023-03-06T04:46:25.902Z,2.30
2023-03-06T04:48:53.031Z,2.30
2023-03-06T04:51:20.341Z,2.30
2023-03-06T04:53:47.485Z,2.30
2023-03-06T04:56:14.511Z,2.30
2023-03-06T04:58:43.278Z,2.30
2023-03-06T05:01:10.726Z,2.30
2023-03-06T05:03:38.655Z,2.30
2023-03-06T05:06:06.182Z,2.30
2023-03-06T05:08:33.352Z,2.30
2023-03-06T05:11:02.116Z,2.30
2023-03-06T05:13:29.490Z,2.30
2023-03-06T05:16:03.667Z,2.30
2023-03-06T05:18:31.683Z,2.30
2023-03-06T05:21:00.104Z,2.40
2023-03-06T05:23:33.977Z,2.40
2023-03-06T05:26:01.273Z,2.30
2023-03-06T05:28:28.745Z,2.20
2023-03-06T05:30:55.820Z,2.20
2023-03-06T05:33:22.845Z,2.20
2023-03-06T05:35:50.272Z,2.10
2023-03-06T05:38:19.042Z,2.10
2023-03-06T05:40:47.467Z,2.10
2023-03-06T05:43:14.635Z,2.10
2023-03-06T05:45:41.868Z,2.00
2023-03-06T05:48:10.755Z,2.00
2023-03-06T05:50:38.019Z,2.00
2023-03-06T05:53:05.274Z,1.90
2023-03-06T05:55:32.438Z,2.00
2023-03-06T05:57:59.518Z,1.90
2023-03-06T06:00:26.922Z,2.00
2023-03-06T06:02:54.421Z,1.90
2023-03-06T06:05:21.494Z,1.80
2023-03-06T06:07:48.680Z,1.80
2023-03-06T06:10:15.980Z,1.80
2023-03-06T06:12:43.057Z,1.70
2023-03-06T06:15:10.752Z,1.70
2023-03-06T06:17:37.842Z,1.70
2023-03-06T06:20:05.640Z,1.70
2023-03-06T06:22:36.925Z,1.70
2023-03-06T06:25:07.328Z,1.70
2023-03-06T06:27:34.834Z,1.70
2023-03-06T06:30:02.168Z,1.70
2023-03-06T06:32:29.654Z,1.70
2023-03-06T06:34:57.205Z,1.80
2023-03-06T06:37:26.117Z,1.70
2023-03-06T06:39:53.276Z,1.70
2023-03-06T06:42:31.450Z,1.70
2023-03-06T06:45:01.375Z,1.60
2023-03-06T06:47:28.516Z,1.60
2023-03-06T06:49:57.149Z,1.60
2023-03-06T06:52:25.288Z,1.60
2023-03-06T06:54:53.180Z,1.70
2023-03-06T06:57:21.942Z,1.70
2023-03-06T06:59:50.639Z,1.80
2023-03-06T07:02:18.878Z,1.80
2023-03-06T07:05:01.967Z,1.80
2023-03-06T07:07:31.735Z,1.90
2023-03-06T07:09:58.769Z,1.90
2023-03-06T07:12:25.840Z,2.00
2023-03-06T07:14:52.903Z,2.00
2023-03-06T07:17:20.145Z,2.00
2023-03-06T07:19:48.291Z,1.90
2023-03-06T07:22:15.624Z,2.00
2023-03-06T07:24:42.809Z,2.00
2023-03-06T07:27:09.967Z,2.00
2023-03-06T07:29:37.163Z,2.10
2023-03-06T07:32:04.412Z,2.20
2023-03-06T07:34:31.894Z,2.20
2023-03-06T07:36:59.083Z,2.20
2023-03-06T07:39:28.085Z,2.20
2023-03-06T07:41:55.425Z,2.20
2023-03-06T07:44:22.583Z,2.20
2023-03-06T07:46:49.644Z,2.20
2023-03-06T07:49:17.714Z,2.30
2023-03-06T07:51:45.147Z,2.50
2023-03-06T07:54:12.326Z,2.70
2023-03-06T07:56:39.407Z,3.20
2023-03-06T07:59:06.562Z,3.50
2023-03-06T08:01:33.631Z,3.80
2023-03-06T08:04:02.055Z,4.00
2023-03-06T08:06:29.383Z,4.20
2023-03-06T08:08:57.187Z,4.10
2023-03-06T08:11:27.300Z,4.20
2023-03-06T08:13:55.306Z,4.20
2023-03-06T08:16:30.432Z,4.10
2023-03-06T08:18:58.833Z,4.10
2023-03-06T08:21:28.255Z,4.00
2023-03-06T08:23:55.697Z,4.00
2023-03-06T08:26:27.318Z,4.10
2023-03-06T08:28:56.828Z,3.90
2023-03-06T08:31:39.011Z,3.70
2023-03-06T08:34:10.321Z,3.70
2023-03-06T08:36:37.613Z,3.70
2023-03-06T08:39:05.425Z,3.60
2023-03-06T08:41:33.492Z,3.80
2023-03-06T08:44:00.741Z,3.80
2023-03-06T08:46:30.460Z,3.80
2023-03-06T08:48:57.943Z,3.70
2023-03-06T08:51:25.790Z,3.70
2023-03-06T08:53:53.256Z,3.60
2023-03-06T08:56:27.147Z,3.60
2023-03-06T08:58:55.709Z,3.50
2023-03-06T09:01:27.039Z,3.50
2023-03-06T09:03:57.773Z,3.50
2023-03-06T09:06:26.846Z,3.50
2023-03-06T09:08:54.808Z,3.40
2023-03-06T09:11:24.432Z,3.30
2023-03-06T09:13:54.403Z,3.40
2023-03-06T09:16:21.895Z,3.30
2023-03-06T09:18:52.954Z,3.30
2023-03-06T09:21:22.548Z,3.30
2023-03-06T09:23:50.106Z,3.40
2023-03-06T09:26:17.991Z,3.50
2023-03-06T09:28:45.315Z,3.60
2023-03-06T09:31:18.231Z,3.70
2023-03-06T09:33:45.951Z,3.70
2023-03-06T09:36:22.689Z,3.70
2023-03-06T09:38:50.681Z,3.80
2023-03-06T09:41:38.712Z,3.90
2023-03-06T09:44:28.938Z,3.90
2023-03-06T09:47:27.566Z,4.00
2023-03-06T09:50:19.545Z,4.10
2023-03-06T09:53:15.244Z,4.20
2023-03-06T09:55:46.595Z,4.20
2023-03-06T09:58:24.892Z,4.10
2023-03-06T10:01:05.727Z,4.10
2023-03-06T10:03:56.225Z,4.10
2023-03-06T10:06:33.827Z,4.10
2023-03-06T10:09:12.484Z,4.20
2023-03-06T10:11:57.292Z,4.30
2023-03-06T10:14:49.122Z,4.30
2023-03-06T10:17:21.692Z,4.30
2023-03-06T10:19:49.570Z,4.20
2023-03-06T10:22:58.549Z,4.10
2023-03-06T10:26:17.060Z,4.20
2023-03-06T10:29:13.981Z,4.20
2023-03-06T10:31:49.673Z,4.10
2023-03-06T10:34:27.105Z,4.00
2023-03-06T10:36:54.293Z,4.00
2023-03-06T10:39:22.933Z,4.00
2023-03-06T10:41:52.984Z,4.20
2023-03-06T10:44:23.336Z,4.30
2023-03-06T10:46:53.725Z,4.40
2023-03-06T10:49:36.889Z,4.40
2023-03-06T10:52:10.046Z,4.60
2023-03-06T10:54:40.117Z,4.90
2023-03-06T10:57:32.012Z,5.10
2023-03-06T11:00:06.711Z,5.20
2023-03-06T11:02:38.547Z,5.30
2023-03-06T11:05:07.594Z,5.20
2023-03-06T11:07:36.342Z,5.10
2023-03-06T11:10:23.479Z,5.30
2023-03-06T11:13:10.542Z,5.60
2023-03-06T11:15:37.703Z,5.90
2023-03-06T11:18:08.773Z,6.00
2023-03-06T11:20:52.114Z,6.00
2023-03-06T11:23:44.840Z,5.90
2023-03-06T11:26:16.041Z,5.80
2023-03-06T11:28:49.708Z,5.60
2023-03-06T11:31:24.798Z,5.40
2023-03-06T11:34:02.803Z,5.50
2023-03-06T11:37:10.411Z,5.60
2023-03-06T11:39:49.503Z,5.70
2023-03-06T11:43:07.852Z,5.90
2023-03-06T11:45:46.810Z,6.10
2023-03-06T11:48:13.906Z,6.30
2023-03-06T11:50:45.307Z,6.50
2023-03-06T11:53:20.571Z,6.40
2023-03-06T11:56:22.862Z,6.50
2023-03-06T11:59:26.724Z,6.50
2023-03-06T12:02:43.993Z,6.40
2023-03-06T12:05:30.192Z,6.50
2023-03-06T12:08:27.845Z,6.40
2023-03-06T12:11:28.728Z,6.20
2023-03-06T12:14:03.996Z,5.90
2023-03-06T12:16:58.651Z,5.90
2023-03-06T12:19:44.565Z,5.60
2023-03-06T12:22:31.285Z,5.50
2023-03-06T12:25:31.124Z,5.30
2023-03-06T12:28:15.796Z,5.20
2023-03-06T12:31:04.587Z,5.00
2023-03-06T12:33:58.578Z,4.90
2023-03-06T12:37:09.568Z,4.90
2023-03-06T12:40:14.315Z,4.90
2023-03-06T12:43:49.964Z,5.00
2023-03-06T12:46:23.548Z,5.20
2023-03-06T12:49:12.346Z,5.20
2023-03-06T12:51:40.375Z,5.50
2023-03-06T12:54:11.304Z,5.50
2023-03-06T12:56:40.181Z,5.40
2023-03-06T12:59:44.369Z,5.40
2023-03-06T13:02:36.106Z,5.50
2023-03-06T13:05:30.036Z,5.50
2023-03-06T13:08:15.087Z,5.80
2023-03-06T13:10:44.235Z,6.10
2023-03-06T13:13:32.951Z,6.90
2023-03-06T13:16:18.875Z,7.30
2023-03-06T13:19:18.397Z,7.90
2023-03-06T13:21:59.405Z,8.30
2023-03-06T13:24:33.925Z,8.10
2023-03-06T13:27:12.113Z,7.60
2023-03-06T13:29:50.792Z,7.30
2023-03-06T13:32:29.386Z,7.30
2023-03-06T13:34:56.734Z,7.10
2023-03-06T13:37:23.792Z,6.90
2023-03-06T13:39:59.468Z,6.90
2023-03-06T13:42:56.699Z,7.10
2023-03-06T13:45:38.322Z,7.00
2023-03-06T13:48:41.630Z,6.80
2023-03-06T13:50:55.659Z,7.00
2023-03-06T13:53:47.668Z,7.50
2023-03-06T13:56:45.966Z,7.80
2023-03-06T14:00:14.513Z,8.00
2023-03-06T14:03:15.379Z,7.90
2023-03-06T14:05:49.167Z,7.50
2023-03-06T14:08:24.136Z,7.60
2023-03-06T14:11:13.591Z,7.50
2023-03-06T14:13:49.799Z,7.00
2023-03-06T14:16:27.821Z,6.60
2023-03-06T14:18:57.979Z,6.40
2023-03-06T14:21:55.950Z,6.30
2023-03-06T14:24:43.677Z,6.20
2023-03-06T14:27:21.274Z,6.20
2023-03-06T14:29:49.879Z,6.30
2023-03-06T14:32:21.821Z,6.50
2023-03-06T14:34:49.089Z,6.60
2023-03-06T14:37:24.676Z,6.60
2023-03-06T14:39:52.500Z,6.50
2023-03-06T14:42:27.731Z,6.50
2023-03-06T14:45:16.037Z,6.50
2023-03-06T14:47:49.468Z,6.40
2023-03-06T14:50:33.280Z,6.20
2023-03-06T14:53:06.846Z,6.30
2023-03-06T14:55:36.117Z,6.00
2023-03-06T14:58:12.127Z,5.90
2023-03-06T15:00:47.418Z,5.70
2023-03-06T15:03:25.595Z,5.40
2023-03-06T15:05:54.019Z,5.40
2023-03-06T15:08:32.387Z,5.20
2023-03-06T15:11:05.519Z,5.20
2023-03-06T15:13:34.270Z,5.00
2023-03-06T15:16:13.182Z,5.10
2023-03-06T15:18:59.589Z,5.00
2023-03-06T15:21:29.772Z,5.00
2023-03-06T15:23:58.246Z,4.90
2023-03-06T15:26:37.110Z,4.80
2023-03-06T15:29:13.770Z,4.80
2023-03-06T15:31:45.911Z,4.70
2023-03-06T15:34:12.988Z,4.60
2023-03-06T15:36:49.145Z,4.60
2023-03-06T15:39:37.270Z,4.70
2023-03-06T15:42:23.709Z,4.90
2023-03-06T15:45:03.012Z,4.80
2023-03-06T15:47:30.156Z,4.70
2023-03-06T15:49:59.307Z,4.70
2023-03-06T15:52:27.477Z,4.70
2023-03-06T15:54:54.644Z,4.70
2023-03-06T15:57:29.281Z,4.70
2023-03-06T15:59:56.899Z,4.50
2023-03-06T16:02:24.466Z,4.50
2023-03-06T16:04:52.524Z,4.40
2023-03-06T16:07:20.778Z,4.40
2023-03-06T16:09:48.151Z,4.30
2023-03-06T16:12:18.993Z,4.20
2023-03-06T16:14:47.928Z,4.10
2023-03-06T16:17:16.149Z,4.10
2023-03-06T16:19:43.629Z,4.10
2023-03-06T16:22:10.943Z,4.00
2023-03-06T16:24:38.082Z,4.00
2023-03-06T16:27:05.547Z,4.00
2023-03-06T16:29:32.965Z,4.00
2023-03-06T16:32:01.902Z,4.00
2023-03-06T16:34:29.284Z,3.90
2023-03-06T16:36:56.649Z,3.90
2023-03-06T16:39:24.510Z,3.90
2023-03-06T16:41:52.422Z,3.80
2023-03-06T16:44:20.828Z,3.80
2023-03-06T16:46:50.208Z,3.80
2023-03-06T16:49:24.612Z,3.90
2023-03-06T16:51:53.456Z,3.80
2023-03-06T16:54:21.901Z,3.80
2023-03-06T16:56:49.025Z,3.70
2023-03-06T16:59:16.181Z,3.70
2023-03-06T17:01:43.500Z,3.60
2023-03-06T17:04:11.974Z,3.50
2023-03-06T17:06:40.142Z,3.60
2023-03-06T17:09:07.344Z,3.50
2023-03-06T17:11:38.805Z,3.60
2023-03-06T17:14:07.014Z,3.50
2023-03-06T17:16:36.605Z,3.50
2023-03-06T17:19:03.825Z,3.50
2023-03-06T17:21:30.979Z,3.50
2023-03-06T17:23:58.031Z,3.40
2023-03-06T17:26:27.842Z,3.40
2023-03-06T17:28:56.190Z,3.40
2023-03-06T17:31:28.326Z,3.30
2023-03-06T17:34:00.433Z,3.30
2023-03-06T17:36:29.492Z,3.30
2023-03-06T17:39:02.108Z,3.20
2023-03-06T17:41:30.061Z,3.10
2023-03-06T17:43:58.770Z,3.10
2023-03-06T17:46:27.166Z,3.10
2023-03-06T17:48:55.344Z,3.10
2023-03-06T17:51:22.431Z,2.90
2023-03-06T17:53:49.744Z,2.90
2023-03-06T17:56:16.954Z,2.80
2023-03-06T17:58:44.659Z,2.80
2023-03-06T18:01:30.759Z,2.80
2023-03-06T18:03:58.168Z,2.90
2023-03-06T18:06:30.186Z,2.80
2023-03-06T18:08:58.875Z,2.70
2023-03-06T18:11:26.183Z,2.60
2023-03-06T18:13:53.712Z,2.60
2023-03-06T18:16:24.341Z,2.60
2023-03-06T18:18:54.663Z,2.60
2023-03-06T18:21:23.086Z,2.60
2023-03-06T18:23:50.630Z,2.60
2023-03-06T18:26:29.918Z,2.60
2023-03-06T18:29:04.496Z,2.60
2023-03-06T18:31:38.978Z,2.60
2023-03-06T18:34:13.633Z,2.70
2023-03-06T18:36:43.642Z,2.70
2023-03-06T18:39:15.820Z,2.70
2023-03-06T18:41:43.102Z,2.80
2023-03-06T18:44:17.571Z,2.70
2023-03-06T18:46:45.210Z,2.70
2023-03-06T18:49:14.260Z,2.60
2023-03-06T18:51:41.869Z,2.60
2023-03-06T18:54:10.738Z,2.60
2023-03-06T18:56:39.872Z,2.70
2023-03-06T18:59:08.088Z,2.60
2023-03-06T19:01:37.768Z,2.60
2023-03-06T19:04:05.570Z,2.60
2023-03-06T19:06:32.767Z,2.60
2023-03-06T19:09:01.825Z,2.50
2023-03-06T19:11:32.046Z,2.60
2023-03-06T19:14:00.054Z,2.60
2023-03-06T19:16:29.856Z,2.60
2023-03-06T19:18:57.749Z,2.60
2023-03-06T19:21:28.050Z,2.50
2023-03-06T19:23:56.182Z,2.50
2023-03-06T19:26:23.743Z,2.60
2023-03-06T19:28:52.594Z,2.60
2023-03-06T19:31:26.749Z,2.60
2023-03-06T19:33:56.005Z,2.60
2023-03-06T19:36:27.564Z,2.60
2023-03-06T19:38:59.806Z,2.70
2023-03-06T19:41:27.966Z,2.80
2023-03-06T19:43:58.938Z,2.80
2023-03-06T19:46:27.027Z,2.80
2023-03-06T19:49:00.274Z,2.80
2023-03-06T19:51:28.573Z,2.80
2023-03-06T19:53:57.681Z,2.80
2023-03-06T19:56:29.278Z,2.80
2023-03-06T19:58:56.989Z,2.80
2023-03-06T20:01:27.156Z,2.80
2023-03-06T20:03:59.062Z,2.70
2023-03-06T20:06:30.090Z,2.70
2023-03-06T20:08:57.388Z,2.80
2023-03-06T20:11:32.556Z,2.90
2023-03-06T20:14:02.427Z,2.80
2023-03-06T20:16:31.087Z,2.80
2023-03-06T20:19:01.029Z,2.70
2023-03-06T20:21:31.812Z,2.60
2023-03-06T20:24:01.316Z,2.70
2023-03-06T20:26:30.617Z,2.70
2023-03-06T20:28:59.353Z,2.80
2023-03-06T20:31:29.864Z,2.70
2023-03-06T20:33:59.618Z,2.70
2023-03-06T20:36:31.690Z,2.70
2023-03-06T20:39:06.357Z,2.70
2023-03-06T20:41:33.879Z,2.70
2023-03-06T20:44:02.919Z,2.70
2023-03-06T20:46:32.446Z,2.70
2023-03-06T20:49:00.140Z,2.80
2023-03-06T20:51:31.832Z,2.70
2023-03-06T20:54:01.246Z,2.80
2023-03-06T20:56:39.713Z,2.80
2023-03-06T20:59:08.799Z,2.80
2023-03-06T21:01:39.188Z,2.80
2023-03-06T21:04:06.908Z,2.80
2023-03-06T21:06:42.574Z,2.90
2023-03-06T21:09:10.563Z,2.90
2023-03-06T21:11:37.615Z,2.80
2023-03-06T21:14:05.452Z,2.80
2023-03-06T21:16:32.812Z,2.70
2023-03-06T21:19:00.899Z,2.70
2023-03-06T21:21:33.147Z,2.70
2023-03-06T21:24:02.923Z,2.60
2023-03-06T21:26:33.901Z,2.60
2023-03-06T21:29:02.762Z,2.60
2023-03-06T21:31:31.300Z,2.60
2023-03-06T21:33:59.077Z,2.60
2023-03-06T21:36:27.324Z,2.60
2023-03-06T21:38:55.095Z,2.70
2023-03-06T21:41:28.019Z,2.70
2023-03-06T21:43:57.190Z,2.70
2023-03-06T21:46:26.090Z,2.70
2023-03-06T21:48:54.813Z,2.70
2023-03-06T21:51:24.125Z,2.60
2023-03-06T21:53:53.220Z,2.60
2023-03-06T21:56:25.093Z,2.70
2023-03-06T21:58:52.784Z,2.70
2023-03-06T22:01:24.643Z,2.70
2023-03-06T22:03:52.006Z,2.70
2023-03-06T22:06:23.594Z,2.70
2023-03-06T22:08:50.831Z,2.70
2023-03-06T22:11:21.307Z,2.60
2023-03-06T22:13:49.188Z,2.60
2023-03-06T22:16:17.746Z,2.60
2023-03-06T22:18:46.940Z,2.60
2023-03-06T22:21:17.071Z,2.60
2023-03-06T22:23:44.853Z,2.70
2023-03-06T22:26:14.456Z,2.70
2023-03-06T22:28:42.319Z,2.80
2023-03-06T22:31:18.713Z,2.70
2023-03-06T22:33:46.368Z,2.70
2023-03-06T22:36:15.860Z,2.70
2023-03-06T22:38:45.793Z,2.70
2023-03-06T22:41:16.469Z,2.60
2023-03-06T22:43:43.895Z,2.60
2023-03-06T22:46:15.973Z,2.50
2023-03-06T22:48:43.786Z,2.60
2023-03-06T22:51:14.786Z,2.60
2023-03-06T22:53:42.590Z,2.60
2023-03-06T22:56:14.123Z,2.60
2023-03-06T22:58:41.356Z,2.50
2023-03-06T23:01:16.509Z,2.50
2023-03-06T23:03:47.150Z,2.50
2023-03-06T23:06:26.989Z,2.60
2023-03-06T23:09:07.540Z,2.60
2023-03-06T23:11:35.411Z,2.60
2023-03-06T23:14:02.748Z,2.60
2023-03-06T23:16:29.941Z,2.80
2023-03-06T23:18:57.190Z,2.80
2023-03-06T23:21:24.473Z,2.70
2023-03-06T23:23:53.910Z,2.60
2023-03-06T23:26:25.077Z,2.60
2023-03-06T23:28:52.805Z,2.70
2023-03-06T23:31:24.609Z,2.70
2023-03-06T23:33:51.787Z,2.60
2023-03-06T23:36:19.213Z,2.50
2023-03-06T23:38:46.734Z,2.50
2023-03-06T23:41:17.238Z,2.50
2023-03-06T23:43:45.205Z,2.50
2023-03-06T23:46:12.606Z,2.50
2023-03-06T23:48:41.995Z,2.50
2023-03-06T23:51:20.117Z,2.60
2023-03-06T23:53:52.839Z,2.60
2023-03-06T23:56:19.967Z,2.60
2023-03-06T23:58:47.092Z,2.60
